sensor_id;sensor_type;location;lat;lon;timestamp;P1;durP1;ratioP1;P2;durP2;ratioP2
42666;SDS011;28280;49.646;14.130;2022-10-15T00:01:36;4.55;;;3.17;;
42666;SDS011;28280;49.646;14.130;2022-10-15T00:07:08;5.53;;;3.20;;
42666;SDS011;28280;49.646;14.130;2022-10-15T00:12:39;5.50;;;3.90;;
42666;SDS011;28280;49.646;14.130;2022-10-15T00:18:11;5.65;;;3.40;;
42666;SDS011;28280;49.646;14.130;2022-10-15T00:23:42;4.30;;;3.10;;
42666;SDS011;28280;49.646;14.130;2022-10-15T00:29:13;5.18;;;3.40;;
42666;SDS011;28280;49.646;14.130;2022-10-15T00:34:45;4.43;;;3.35;;
42666;SDS011;28280;49.646;14.130;2022-10-15T00:40:17;5.32;;;3.80;;
42666;SDS011;28280;49.646;14.130;2022-10-15T00:45:49;5.03;;;3.88;;
42666;SDS011;28280;49.646;14.130;2022-10-15T00:51:20;4.70;;;3.47;;
42666;SDS011;28280;49.646;14.130;2022-10-15T00:56:52;5.43;;;3.55;;
42666;SDS011;28280;49.646;14.130;2022-10-15T01:02:25;4.30;;;3.42;;
42666;SDS011;28280;49.646;14.130;2022-10-15T01:07:56;4.65;;;3.63;;
42666;SDS011;28280;49.646;14.130;2022-10-15T01:19:13;5.15;;;3.67;;
42666;SDS011;28280;49.646;14.130;2022-10-15T01:30:58;6.60;;;4.57;;
42666;SDS011;28280;49.646;14.130;2022-10-15T01:36:36;5.75;;;3.83;;
42666;SDS011;28280;49.646;14.130;2022-10-15T01:42:13;6.90;;;4.07;;
42666;SDS011;28280;49.646;14.130;2022-10-15T01:48:09;6.03;;;4.07;;
42666;SDS011;28280;49.646;14.130;2022-10-15T01:53:42;5.72;;;3.85;;
42666;SDS011;28280;49.646;14.130;2022-10-15T01:59:15;6.30;;;4.40;;
42666;SDS011;28280;49.646;14.130;2022-10-15T02:04:49;4.97;;;3.92;;
42666;SDS011;28280;49.646;14.130;2022-10-15T02:16:13;5.03;;;3.47;;
42666;SDS011;28280;49.646;14.130;2022-10-15T02:21:56;5.45;;;4.07;;
42666;SDS011;28280;49.646;14.130;2022-10-15T02:27:32;4.78;;;3.95;;
42666;SDS011;28280;49.646;14.130;2022-10-15T02:33:03;6.25;;;4.32;;
42666;SDS011;28280;49.646;14.130;2022-10-15T02:38:34;5.40;;;3.78;;
42666;SDS011;28280;49.646;14.130;2022-10-15T02:44:07;5.22;;;3.63;;
42666;SDS011;28280;49.646;14.130;2022-10-15T02:49:38;6.10;;;4.22;;
42666;SDS011;28280;49.646;14.130;2022-10-15T02:55:09;5.80;;;4.30;;
42666;SDS011;28280;49.646;14.130;2022-10-15T03:00:41;5.63;;;4.00;;
42666;SDS011;28280;49.646;14.130;2022-10-15T03:06:13;5.93;;;4.15;;
42666;SDS011;28280;49.646;14.130;2022-10-15T03:11:45;5.00;;;3.85;;
42666;SDS011;28280;49.646;14.130;2022-10-15T03:17:16;6.97;;;4.50;;
42666;SDS011;28280;49.646;14.130;2022-10-15T03:22:48;4.43;;;3.63;;
42666;SDS011;28280;49.646;14.130;2022-10-15T03:28:20;7.18;;;4.45;;
42666;SDS011;28280;49.646;14.130;2022-10-15T03:33:52;5.35;;;4.00;;
42666;SDS011;28280;49.646;14.130;2022-10-15T03:39:28;4.75;;;3.60;;
42666;SDS011;28280;49.646;14.130;2022-10-15T03:45:04;5.07;;;3.63;;
42666;SDS011;28280;49.646;14.130;2022-10-15T03:50:36;5.10;;;3.88;;
42666;SDS011;28280;49.646;14.130;2022-10-15T03:56:08;5.93;;;3.38;;
42666;SDS011;28280;49.646;14.130;2022-10-15T04:07:13;4.30;;;3.55;;
42666;SDS011;28280;49.646;14.130;2022-10-15T04:12:45;4.72;;;3.50;;
42666;SDS011;28280;49.646;14.130;2022-10-15T04:18:19;5.22;;;3.80;;
42666;SDS011;28280;49.646;14.130;2022-10-15T04:23:56;4.80;;;3.70;;
42666;SDS011;28280;49.646;14.130;2022-10-15T04:29:33;3.97;;;3.38;;
42666;SDS011;28280;49.646;14.130;2022-10-15T04:35:16;4.82;;;3.83;;
42666;SDS011;28280;49.646;14.130;2022-10-15T04:41:18;5.25;;;3.42;;
42666;SDS011;28280;49.646;14.130;2022-10-15T04:46:57;5.00;;;3.88;;
42666;SDS011;28280;49.646;14.130;2022-10-15T04:52:35;5.57;;;3.40;;
42666;SDS011;28280;49.646;14.130;2022-10-15T04:58:11;4.40;;;3.45;;
42666;SDS011;28280;49.646;14.130;2022-10-15T05:03:43;5.28;;;3.45;;
42666;SDS011;28280;49.646;14.130;2022-10-15T05:09:16;4.72;;;3.63;;
42666;SDS011;28280;49.646;14.130;2022-10-15T05:14:52;4.65;;;3.60;;
42666;SDS011;28280;49.646;14.130;2022-10-15T05:20:29;4.07;;;3.00;;
42666;SDS011;28280;49.646;14.130;2022-10-15T05:26:01;4.53;;;3.03;;
42666;SDS011;28280;49.646;14.130;2022-10-15T05:31:36;4.28;;;3.42;;
42666;SDS011;28280;49.646;14.130;2022-10-15T05:37:16;3.80;;;3.00;;
42666;SDS011;28280;49.646;14.130;2022-10-15T05:42:50;3.35;;;2.90;;
42666;SDS011;28280;49.646;14.130;2022-10-15T05:48:23;4.30;;;3.40;;
42666;SDS011;28280;49.646;14.130;2022-10-15T05:53:54;4.15;;;2.90;;
42666;SDS011;28280;49.646;14.130;2022-10-15T05:59:27;3.67;;;2.80;;
42666;SDS011;28280;49.646;14.130;2022-10-15T06:04:58;3.78;;;3.00;;
42666;SDS011;28280;49.646;14.130;2022-10-15T06:10:29;3.70;;;2.85;;
42666;SDS011;28280;49.646;14.130;2022-10-15T06:16:02;4.13;;;2.47;;
42666;SDS011;28280;49.646;14.130;2022-10-15T06:21:33;3.67;;;2.90;;
42666;SDS011;28280;49.646;14.130;2022-10-15T06:27:04;4.30;;;2.70;;
42666;SDS011;28280;49.646;14.130;2022-10-15T06:32:35;4.20;;;2.88;;
42666;SDS011;28280;49.646;14.130;2022-10-15T06:38:07;3.05;;;2.38;;
42666;SDS011;28280;49.646;14.130;2022-10-15T06:43:38;4.25;;;2.72;;
42666;SDS011;28280;49.646;14.130;2022-10-15T06:49:09;2.95;;;2.42;;
42666;SDS011;28280;49.646;14.130;2022-10-15T06:54:45;3.38;;;2.47;;
42666;SDS011;28280;49.646;14.130;2022-10-15T07:00:16;3.17;;;2.42;;
42666;SDS011;28280;49.646;14.130;2022-10-15T07:11:20;4.15;;;2.40;;
42666;SDS011;28280;49.646;14.130;2022-10-15T07:16:51;3.03;;;2.25;;
42666;SDS011;28280;49.646;14.130;2022-10-15T07:22:25;4.50;;;2.17;;
42666;SDS011;28280;49.646;14.130;2022-10-15T07:27:57;3.20;;;2.50;;
42666;SDS011;28280;49.646;14.130;2022-10-15T07:33:28;2.70;;;2.17;;
42666;SDS011;28280;49.646;14.130;2022-10-15T07:39:03;2.90;;;2.25;;
42666;SDS011;28280;49.646;14.130;2022-10-15T07:44:35;2.88;;;2.10;;
42666;SDS011;28280;49.646;14.130;2022-10-15T07:50:08;2.80;;;1.83;;
42666;SDS011;28280;49.646;14.130;2022-10-15T07:55:39;3.10;;;2.10;;
42666;SDS011;28280;49.646;14.130;2022-10-15T08:01:10;2.67;;;2.17;;
42666;SDS011;28280;49.646;14.130;2022-10-15T08:06:41;3.53;;;2.33;;
42666;SDS011;28280;49.646;14.130;2022-10-15T08:12:12;2.75;;;1.90;;
42666;SDS011;28280;49.646;14.130;2022-10-15T08:17:43;2.53;;;2.08;;
42666;SDS011;28280;49.646;14.130;2022-10-15T08:23:17;2.65;;;2.00;;
42666;SDS011;28280;49.646;14.130;2022-10-15T08:28:48;2.75;;;2.08;;
42666;SDS011;28280;49.646;14.130;2022-10-15T08:39:54;3.42;;;1.83;;
42666;SDS011;28280;49.646;14.130;2022-10-15T08:45:33;3.25;;;2.20;;
42666;SDS011;28280;49.646;14.130;2022-10-15T08:51:10;2.42;;;1.90;;
42666;SDS011;28280;49.646;14.130;2022-10-15T08:56:48;2.92;;;2.47;;
42666;SDS011;28280;49.646;14.130;2022-10-15T09:02:23;3.08;;;2.45;;
42666;SDS011;28280;49.646;14.130;2022-10-15T09:08:03;3.08;;;2.65;;
42666;SDS011;28280;49.646;14.130;2022-10-15T09:13:42;3.30;;;2.30;;
42666;SDS011;28280;49.646;14.130;2022-10-15T09:19:19;4.20;;;3.07;;
42666;SDS011;28280;49.646;14.130;2022-10-15T09:24:52;4.20;;;2.72;;
42666;SDS011;28280;49.646;14.130;2022-10-15T09:30:35;3.97;;;2.85;;
42666;SDS011;28280;49.646;14.130;2022-10-15T09:36:14;4.45;;;2.58;;
42666;SDS011;28280;49.646;14.130;2022-10-15T09:41:52;3.42;;;2.45;;
42666;SDS011;28280;49.646;14.130;2022-10-15T09:47:26;3.28;;;2.58;;
42666;SDS011;28280;49.646;14.130;2022-10-15T09:53:06;3.95;;;2.92;;
42666;SDS011;28280;49.646;14.130;2022-10-15T10:04:17;5.18;;;2.67;;
42666;SDS011;28280;49.646;14.130;2022-10-15T10:09:54;4.07;;;3.00;;
42666;SDS011;28280;49.646;14.130;2022-10-15T10:15:33;4.07;;;2.53;;
42666;SDS011;28280;49.646;14.130;2022-10-15T10:21:19;3.20;;;2.53;;
42666;SDS011;28280;49.646;14.130;2022-10-15T10:26:52;3.88;;;2.88;;
42666;SDS011;28280;49.646;14.130;2022-10-15T10:32:27;5.07;;;2.95;;
42666;SDS011;28280;49.646;14.130;2022-10-15T10:38:00;3.80;;;2.47;;
42666;SDS011;28280;49.646;14.130;2022-10-15T10:43:32;4.03;;;2.47;;
42666;SDS011;28280;49.646;14.130;2022-10-15T10:49:08;3.80;;;2.42;;
42666;SDS011;28280;49.646;14.130;2022-10-15T10:54:40;3.08;;;2.30;;
42666;SDS011;28280;49.646;14.130;2022-10-15T11:00:57;3.75;;;2.60;;
42666;SDS011;28280;49.646;14.130;2022-10-15T11:06:24;3.78;;;3.00;;
42666;SDS011;28280;49.646;14.130;2022-10-15T11:18:29;2.97;;;2.35;;
42666;SDS011;28280;49.646;14.130;2022-10-15T11:24:25;3.97;;;2.65;;
42666;SDS011;28280;49.646;14.130;2022-10-15T11:30:25;4.32;;;3.00;;
42666;SDS011;28280;49.646;14.130;2022-10-15T12:04:52;4.47;;;2.33;;
42666;SDS011;28280;49.646;14.130;2022-10-15T12:10:39;3.53;;;2.70;;
42666;SDS011;28280;49.646;14.130;2022-10-15T12:16:35;2.67;;;2.30;;
42666;SDS011;28280;49.646;14.130;2022-10-15T12:22:11;3.10;;;2.40;;
42666;SDS011;28280;49.646;14.130;2022-10-15T12:27:43;3.03;;;2.25;;
42666;SDS011;28280;49.646;14.130;2022-10-15T12:39:02;3.77;;;2.43;;
42666;SDS011;28280;49.646;14.130;2022-10-15T12:44:51;3.75;;;2.35;;
42666;SDS011;28280;49.646;14.130;2022-10-15T12:50:24;3.15;;;2.45;;
42666;SDS011;28280;49.646;14.130;2022-10-15T13:07:14;2.65;;;2.00;;
42666;SDS011;28280;49.646;14.130;2022-10-15T13:12:50;2.78;;;2.15;;
42666;SDS011;28280;49.646;14.130;2022-10-15T13:18:25;2.65;;;2.15;;
42666;SDS011;28280;49.646;14.130;2022-10-15T13:23:59;4.00;;;2.40;;
42666;SDS011;28280;49.646;14.130;2022-10-15T13:29:30;2.30;;;2.05;;
42666;SDS011;28280;49.646;14.130;2022-10-15T13:35:02;3.05;;;1.77;;
42666;SDS011;28280;49.646;14.130;2022-10-15T13:40:40;2.25;;;1.77;;
42666;SDS011;28280;49.646;14.130;2022-10-15T13:46:17;2.53;;;1.85;;
42666;SDS011;28280;49.646;14.130;2022-10-15T13:51:49;2.45;;;1.80;;
42666;SDS011;28280;49.646;14.130;2022-10-15T13:57:21;3.35;;;2.20;;
42666;SDS011;28280;49.646;14.130;2022-10-15T14:03:05;2.63;;;2.20;;
42666;SDS011;28280;49.646;14.130;2022-10-15T14:08:42;4.80;;;2.40;;
42666;SDS011;28280;49.646;14.130;2022-10-15T14:14:27;2.33;;;1.77;;
42666;SDS011;28280;49.646;14.130;2022-10-15T14:20:03;2.08;;;1.70;;
42666;SDS011;28280;49.646;14.130;2022-10-15T14:25:57;2.28;;;1.90;;
42666;SDS011;28280;49.646;14.130;2022-10-15T14:31:43;3.20;;;1.77;;
42666;SDS011;28280;49.646;14.130;2022-10-15T14:43:02;2.35;;;1.98;;
42666;SDS011;28280;49.646;14.130;2022-10-15T14:48:35;3.90;;;1.60;;
42666;SDS011;28280;49.646;14.130;2022-10-15T14:54:11;2.20;;;1.63;;
42666;SDS011;28280;49.646;14.130;2022-10-15T14:59:53;1.92;;;1.40;;
42666;SDS011;28280;49.646;14.130;2022-10-15T15:05:25;2.08;;;1.63;;
42666;SDS011;28280;49.646;14.130;2022-10-15T15:10:58;1.67;;;1.30;;
42666;SDS011;28280;49.646;14.130;2022-10-15T15:16:32;2.00;;;1.55;;
42666;SDS011;28280;49.646;14.130;2022-10-15T15:22:02;1.75;;;1.38;;
42666;SDS011;28280;49.646;14.130;2022-10-15T15:27:34;2.10;;;1.50;;
42666;SDS011;28280;49.646;14.130;2022-10-15T15:33:08;1.80;;;1.35;;
42666;SDS011;28280;49.646;14.130;2022-10-15T15:38:41;2.03;;;1.30;;
42666;SDS011;28280;49.646;14.130;2022-10-15T15:44:12;2.00;;;1.63;;
42666;SDS011;28280;49.646;14.130;2022-10-15T15:49:43;2.08;;;1.42;;
42666;SDS011;28280;49.646;14.130;2022-10-15T15:55:14;1.98;;;1.40;;
42666;SDS011;28280;49.646;14.130;2022-10-15T16:00:46;1.83;;;1.25;;
42666;SDS011;28280;49.646;14.130;2022-10-15T16:06:17;1.63;;;1.30;;
42666;SDS011;28280;49.646;14.130;2022-10-15T16:11:49;2.50;;;1.25;;
42666;SDS011;28280;49.646;14.130;2022-10-15T16:17:21;2.00;;;1.40;;
42666;SDS011;28280;49.646;14.130;2022-10-15T16:22:53;4.90;;;1.40;;
42666;SDS011;28280;49.646;14.130;2022-10-15T16:28:25;1.92;;;1.30;;
42666;SDS011;28280;49.646;14.130;2022-10-15T16:33:56;2.55;;;1.38;;
42666;SDS011;28280;49.646;14.130;2022-10-15T16:39:27;1.65;;;1.20;;
42666;SDS011;28280;49.646;14.130;2022-10-15T16:44:59;1.70;;;1.38;;
42666;SDS011;28280;49.646;14.130;2022-10-15T16:50:30;1.67;;;1.33;;
42666;SDS011;28280;49.646;14.130;2022-10-15T16:56:05;2.17;;;1.50;;
42666;SDS011;28280;49.646;14.130;2022-10-15T17:01:41;1.92;;;1.27;;
42666;SDS011;28280;49.646;14.130;2022-10-15T17:07:12;2.47;;;1.55;;
42666;SDS011;28280;49.646;14.130;2022-10-15T17:12:43;1.50;;;1.20;;
42666;SDS011;28280;49.646;14.130;2022-10-15T17:18:14;2.20;;;1.25;;
42666;SDS011;28280;49.646;14.130;2022-10-15T17:23:45;1.67;;;1.25;;
42666;SDS011;28280;49.646;14.130;2022-10-15T17:29:18;1.92;;;1.30;;
42666;SDS011;28280;49.646;14.130;2022-10-15T17:40:21;1.80;;;1.40;;
42666;SDS011;28280;49.646;14.130;2022-10-15T17:45:59;1.90;;;1.50;;
42666;SDS011;28280;49.646;14.130;2022-10-15T17:51:32;1.88;;;1.27;;
42666;SDS011;28280;49.646;14.130;2022-10-15T17:57:04;1.88;;;1.40;;
42666;SDS011;28280;49.646;14.130;2022-10-15T18:02:36;1.80;;;1.45;;
42666;SDS011;28280;49.646;14.130;2022-10-15T18:08:07;1.95;;;1.40;;
42666;SDS011;28280;49.646;14.130;2022-10-15T18:13:39;2.10;;;1.80;;
42666;SDS011;28280;49.646;14.130;2022-10-15T18:19:10;1.77;;;1.30;;
42666;SDS011;28280;49.646;14.130;2022-10-15T18:24:42;3.22;;;1.60;;
42666;SDS011;28280;49.646;14.130;2022-10-15T18:30:13;2.20;;;1.48;;
42666;SDS011;28280;49.646;14.130;2022-10-15T18:35:45;2.53;;;1.58;;
42666;SDS011;28280;49.646;14.130;2022-10-15T18:41:20;1.63;;;1.35;;
42666;SDS011;28280;49.646;14.130;2022-10-15T18:46:52;2.42;;;1.38;;
42666;SDS011;28280;49.646;14.130;2022-10-15T18:52:23;2.47;;;1.63;;
42666;SDS011;28280;49.646;14.130;2022-10-15T18:58:09;2.65;;;1.58;;
42666;SDS011;28280;49.646;14.130;2022-10-15T19:03:40;2.38;;;1.60;;
42666;SDS011;28280;49.646;14.130;2022-10-15T19:09:16;2.53;;;1.60;;
42666;SDS011;28280;49.646;14.130;2022-10-15T19:14:49;2.03;;;1.38;;
42666;SDS011;28280;49.646;14.130;2022-10-15T19:20:20;2.03;;;1.30;;
42666;SDS011;28280;49.646;14.130;2022-10-15T19:25:51;1.90;;;1.50;;
42666;SDS011;28280;49.646;14.130;2022-10-15T19:36:55;2.05;;;1.23;;
42666;SDS011;28280;49.646;14.130;2022-10-15T19:42:26;1.80;;;1.20;;
42666;SDS011;28280;49.646;14.130;2022-10-15T19:47:59;1.92;;;1.30;;
42666;SDS011;28280;49.646;14.130;2022-10-15T19:53:32;1.98;;;1.58;;
42666;SDS011;28280;49.646;14.130;2022-10-15T19:59:04;1.95;;;1.42;;
42666;SDS011;28280;49.646;14.130;2022-10-15T20:04:36;1.60;;;1.27;;
42666;SDS011;28280;49.646;14.130;2022-10-15T20:10:07;1.98;;;1.25;;
42666;SDS011;28280;49.646;14.130;2022-10-15T20:15:49;1.70;;;1.20;;
42666;SDS011;28280;49.646;14.130;2022-10-15T20:21:21;1.77;;;1.30;;
42666;SDS011;28280;49.646;14.130;2022-10-15T20:26:53;2.20;;;1.50;;
42666;SDS011;28280;49.646;14.130;2022-10-15T20:32:24;1.90;;;1.30;;
42666;SDS011;28280;49.646;14.130;2022-10-15T20:38:11;2.17;;;1.50;;
42666;SDS011;28280;49.646;14.130;2022-10-15T20:43:43;2.17;;;1.50;;
42666;SDS011;28280;49.646;14.130;2022-10-15T20:49:16;2.83;;;1.40;;
42666;SDS011;28280;49.646;14.130;2022-10-15T20:54:50;2.42;;;1.48;;
42666;SDS011;28280;49.646;14.130;2022-10-15T21:00:23;2.88;;;1.33;;
42666;SDS011;28280;49.646;14.130;2022-10-15T21:05:55;2.38;;;1.70;;
42666;SDS011;28280;49.646;14.130;2022-10-15T21:11:26;2.97;;;1.75;;
42666;SDS011;28280;49.646;14.130;2022-10-15T21:16:58;3.78;;;1.63;;
42666;SDS011;28280;49.646;14.130;2022-10-15T21:22:29;2.53;;;1.90;;
42666;SDS011;28280;49.646;14.130;2022-10-15T21:28:00;2.22;;;1.70;;
42666;SDS011;28280;49.646;14.130;2022-10-15T21:33:31;2.70;;;1.80;;
42666;SDS011;28280;49.646;14.130;2022-10-15T21:39:04;1.52;;;1.27;;
42666;SDS011;28280;49.646;14.130;2022-10-15T21:44:36;2.55;;;1.80;;
42666;SDS011;28280;49.646;14.130;2022-10-15T21:50:07;3.42;;;1.77;;
42666;SDS011;28280;49.646;14.130;2022-10-15T21:55:38;3.05;;;1.80;;
42666;SDS011;28280;49.646;14.130;2022-10-15T22:01:19;2.95;;;1.88;;
42666;SDS011;28280;49.646;14.130;2022-10-15T22:06:52;2.50;;;1.90;;
42666;SDS011;28280;49.646;14.130;2022-10-15T22:12:23;3.47;;;2.10;;
42666;SDS011;28280;49.646;14.130;2022-10-15T22:17:55;6.10;;;2.35;;
42666;SDS011;28280;49.646;14.130;2022-10-15T22:23:26;2.35;;;1.77;;
42666;SDS011;28280;49.646;14.130;2022-10-15T22:28:57;3.35;;;1.88;;
42666;SDS011;28280;49.646;14.130;2022-10-15T22:34:30;2.63;;;2.00;;
42666;SDS011;28280;49.646;14.130;2022-10-15T22:40:01;2.53;;;1.95;;
42666;SDS011;28280;49.646;14.130;2022-10-15T22:45:32;2.38;;;1.83;;
42666;SDS011;28280;49.646;14.130;2022-10-15T22:51:04;2.83;;;1.95;;
42666;SDS011;28280;49.646;14.130;2022-10-15T22:56:36;3.60;;;2.05;;
42666;SDS011;28280;49.646;14.130;2022-10-15T23:02:08;2.53;;;1.90;;
42666;SDS011;28280;49.646;14.130;2022-10-15T23:07:42;2.70;;;1.80;;
42666;SDS011;28280;49.646;14.130;2022-10-15T23:13:13;3.38;;;2.05;;
42666;SDS011;28280;49.646;14.130;2022-10-15T23:18:45;2.55;;;2.05;;
42666;SDS011;28280;49.646;14.130;2022-10-15T23:24:18;3.07;;;2.07;;
42666;SDS011;28280;49.646;14.130;2022-10-15T23:29:51;2.95;;;1.88;;
42666;SDS011;28280;49.646;14.130;2022-10-15T23:35:42;2.67;;;2.35;;
42666;SDS011;28280;49.646;14.130;2022-10-15T23:41:13;2.20;;;2.00;;
42666;SDS011;28280;49.646;14.130;2022-10-15T23:46:45;5.07;;;2.17;;
42666;SDS011;28280;49.646;14.130;2022-10-15T23:52:16;3.97;;;2.17;;
42666;SDS011;28280;49.646;14.130;2022-10-15T23:57:47;2.72;;;1.92;;
